Time;durP1;ratioP1;P1;durP2;ratioP2;P2;SDS_P1;SDS_P2;PMS_P1;PMS_P2;Temp;Humidity;BMP_temperature;BMP_pressure;BME280_temperature;BME280_humidity;BME280_pressure;Samples;Min_cycle;Max_cycle;Signal;HPM_P1;HPM_P2
2022/11/22 00:04:58;;;;;;;5.20;3.58;;;;;;;;;;10556499;28;20111;-78
2022/11/22 00:09:58;;;;;;;5.82;4.15;;;;;;;;;;10556430;28;20024;-80
2022/11/22 00:14:59;;;;;;;5.18;3.72;;;;;;;;;;10556042;28;20471;-73
2022/11/22 00:19:59;;;;;;;5.25;3.78;;;;;;;;;;10555756;28;20043;-73
2022/11/22 00:24:59;;;;;;;5.30;4.13;;;;;;;;;;10573559;28;20122;-74
2022/11/22 00:29:59;;;;;;;4.30;3.33;;;;;;;;;;10572641;28;20092;-74
2022/11/22 00:35:00;;;;;;;5.15;3.55;;;;;;;;;;10559423;28;20023;-75
2022/11/22 00:40:01;;;;;;;5.43;3.65;;;;;;;;;;10555762;28;20111;-75
2022/11/22 00:45:01;;;;;;;5.10;3.75;;;;;;;;;;10575191;28;20663;-73
2022/11/22 00:50:02;;;;;;;5.67;4.03;;;;;;;;;;10574217;28;20111;-76
2022/11/22 00:55:02;;;;;;;5.05;3.90;;;;;;;;;;10559015;28;20318;-75
2022/11/22 01:00:04;;;;;;;7.50;3.70;;;;;;;;;;10560447;28;20027;-73
2022/11/22 01:05:04;;;;;;;6.03;4.10;;;;;;;;;;10572775;28;20391;-73
2022/11/22 01:10:05;;;;;;;9.55;4.43;;;;;;;;;;10537492;28;20016;-72
2022/11/22 01:15:05;;;;;;;5.93;4.45;;;;;;;;;;10554180;28;20088;-76
2022/11/22 01:20:06;;;;;;;6.18;4.07;;;;;;;;;;10553147;28;20078;-75
2022/11/22 01:25:07;;;;;;;7.30;4.53;;;;;;;;;;10553449;28;20032;-81
2022/11/22 01:30:08;;;;;;;7.22;4.63;;;;;;;;;;10572003;28;20038;-75
2022/11/22 01:35:08;;;;;;;6.45;4.40;;;;;;;;;;10553382;28;20020;-74
2022/11/22 01:40:09;;;;;;;9.18;5.13;;;;;;;;;;10553189;28;20563;-74
2022/11/22 01:45:27;;;;;;;11.32;6.28;;;;;;;;;;10570295;28;20488;-73
2022/11/22 01:50:29;;;;;;;9.63;5.75;;;;;;;;;;10552194;28;20055;-74
2022/11/22 01:55:29;;;;;;;10.65;5.40;;;;;;;;;;10570639;28;20024;-80
2022/11/22 02:00:30;;;;;;;9.13;5.23;;;;;;;;;;10551179;28;20031;-74
2022/11/22 02:05:31;;;;;;;9.30;6.13;;;;;;;;;;10552187;28;20286;-77
2022/11/22 02:10:34;;;;;;;10.98;6.03;;;;;;;;;;10552178;28;20024;-79
2022/11/22 02:15:34;;;;;;;7.38;4.97;;;;;;;;;;10551720;28;20048;-73
2022/11/22 02:20:36;;;;;;;9.70;5.50;;;;;;;;;;10582251;27;20054;-72
2022/11/22 02:25:40;;;;;;;10.48;5.50;;;;;;;;;;10551996;28;20076;-79
2022/11/22 02:30:41;;;;;;;8.05;4.78;;;;;;;;;;10552803;28;20027;-72
2022/11/22 02:35:41;;;;;;;7.97;5.95;;;;;;;;;;10579189;28;20742;-76
2022/11/22 02:40:47;;;;;;;8.23;4.90;;;;;;;;;;10551529;28;20038;-77
2022/11/22 02:45:48;;;;;;;9.32;5.53;;;;;;;;;;10560313;28;20020;-74
2022/11/22 02:50:48;;;;;;;10.63;5.13;;;;;;;;;;10562191;28;20024;-76
2022/11/22 02:55:49;;;;;;;11.10;5.80;;;;;;;;;;10578138;28;20040;-78
2022/11/22 03:00:49;;;;;;;9.43;5.28;;;;;;;;;;10549231;28;20030;-75
2022/11/22 03:05:49;;;;;;;8.65;5.35;;;;;;;;;;10549872;28;20042;-74
2022/11/22 03:10:50;;;;;;;9.38;5.22;;;;;;;;;;10567905;28;20062;-77
2022/11/22 03:15:50;;;;;;;9.73;5.97;;;;;;;;;;10544047;28;20031;-81
2022/11/22 03:20:51;;;;;;;10.57;5.90;;;;;;;;;;10549052;28;20051;-78
2022/11/22 03:25:51;;;;;;;9.38;5.85;;;;;;;;;;10548956;28;20020;-74
2022/11/22 03:30:51;;;;;;;9.80;5.75;;;;;;;;;;10566739;28;20088;-76
2022/11/22 03:35:55;;;;;;;8.80;4.85;;;;;;;;;;10550085;28;20034;-78
2022/11/22 03:40:56;;;;;;;9.63;5.85;;;;;;;;;;10549117;28;20482;-75
2022/11/22 03:45:56;;;;;;;11.82;6.45;;;;;;;;;;10548870;28;20024;-72
2022/11/22 03:51:03;;;;;;;10.57;5.50;;;;;;;;;;10534270;28;20067;-76
2022/11/22 03:56:04;;;;;;;10.57;6.07;;;;;;;;;;10548687;28;20030;-77
2022/11/22 04:01:06;;;;;;;9.73;5.50;;;;;;;;;;10546706;28;20034;-79
2022/11/22 04:06:06;;;;;;;13.73;6.70;;;;;;;;;;10565197;28;20541;-76
2022/11/22 04:11:07;;;;;;;8.40;5.68;;;;;;;;;;10546572;28;20028;-71
2022/11/22 04:16:07;;;;;;;12.15;5.93;;;;;;;;;;10571921;28;20031;-76
2022/11/22 04:26:26;;;;;;;12.35;7.47;;;;;;;;;;10559209;28;20046;-74
2022/11/22 04:36:45;;;;;;;12.10;7.15;;;;;;;;;;10561872;28;20415;-74
2022/11/22 04:41:46;;;;;;;10.15;6.45;;;;;;;;;;10576278;28;20024;-79
2022/11/22 04:46:46;;;;;;;9.02;6.13;;;;;;;;;;10591174;28;20081;-79
2022/11/22 04:57:05;;;;;;;13.65;7.18;;;;;;;;;;10560846;28;20031;-74
2022/11/22 05:02:05;;;;;;;13.98;7.72;;;;;;;;;;10571834;28;20127;-75
2022/11/22 05:07:07;;;;;;;13.48;7.45;;;;;;;;;;10540034;28;20230;-76
2022/11/22 05:12:07;;;;;;;20.00;9.18;;;;;;;;;;10545744;28;20030;-75
2022/11/22 05:17:08;;;;;;;11.82;6.63;;;;;;;;;;10549702;28;20055;-78
2022/11/22 05:22:08;;;;;;;19.65;11.05;;;;;;;;;;10533843;28;20032;-73
2022/11/22 05:27:08;;;;;;;20.70;9.68;;;;;;;;;;10568471;28;20016;-78
2022/11/22 05:32:09;;;;;;;24.67;9.02;;;;;;;;;;10570020;28;20030;-78
2022/11/22 05:37:09;;;;;;;16.40;9.73;;;;;;;;;;10550997;28;20142;-74
2022/11/22 05:42:09;;;;;;;19.48;11.48;;;;;;;;;;10545632;28;20039;-77
2022/11/22 05:47:11;;;;;;;18.90;9.88;;;;;;;;;;10565940;28;20478;-78
2022/11/22 05:52:12;;;;;;;15.10;9.48;;;;;;;;;;10560774;28;20518;-73
2022/11/22 05:57:12;;;;;;;18.52;9.98;;;;;;;;;;10551924;28;20023;-74
2022/11/22 06:02:12;;;;;;;21.75;12.68;;;;;;;;;;10541754;28;20136;-79
2022/11/22 06:07:12;;;;;;;19.85;12.13;;;;;;;;;;10550951;28;20024;-74
2022/11/22 06:12:13;;;;;;;19.02;10.25;;;;;;;;;;10550663;28;20024;-72
2022/11/22 06:17:13;;;;;;;27.05;11.82;;;;;;;;;;10549395;28;20042;-74
2022/11/22 06:22:13;;;;;;;15.57;9.43;;;;;;;;;;10549482;28;20024;-75
2022/11/22 06:27:13;;;;;;;18.60;7.93;;;;;;;;;;10549670;28;20016;-74
2022/11/22 06:32:14;;;;;;;16.02;9.00;;;;;;;;;;10547892;28;20049;-75
2022/11/22 06:37:15;;;;;;;19.48;9.52;;;;;;;;;;10538635;28;20477;-73
2022/11/22 06:42:15;;;;;;;22.65;10.52;;;;;;;;;;10578452;28;20049;-73
2022/11/22 06:47:16;;;;;;;24.35;11.15;;;;;;;;;;10582057;28;20106;-75
2022/11/22 06:52:16;;;;;;;23.08;11.63;;;;;;;;;;10584686;28;20027;-74
2022/11/22 06:57:16;;;;;;;26.52;11.60;;;;;;;;;;10554136;28;20016;-75
2022/11/22 07:02:18;;;;;;;20.73;10.68;;;;;;;;;;10570853;28;20073;-73
2022/11/22 07:07:18;;;;;;;25.08;11.65;;;;;;;;;;10550828;28;20089;-74
2022/11/22 07:12:19;;;;;;;24.00;12.55;;;;;;;;;;10569187;28;20475;-74
2022/11/22 07:17:19;;;;;;;21.42;12.00;;;;;;;;;;10551167;28;20054;-74
2022/11/22 07:22:19;;;;;;;17.63;10.85;;;;;;;;;;10553045;28;20042;-74
2022/11/22 07:27:21;;;;;;;20.05;10.07;;;;;;;;;;10551272;28;20019;-74
2022/11/22 07:32:22;;;;;;;19.88;10.50;;;;;;;;;;10550650;28;20050;-73
2022/11/22 07:37:23;;;;;;;21.20;10.30;;;;;;;;;;10570448;28;20107;-74
2022/11/22 07:42:23;;;;;;;21.55;11.27;;;;;;;;;;10550721;28;20023;-74
2022/11/22 07:47:25;;;;;;;17.90;9.63;;;;;;;;;;10549727;28;20537;-74
2022/11/22 07:52:25;;;;;;;18.30;9.30;;;;;;;;;;10548733;28;20099;-72
2022/11/22 07:57:25;;;;;;;15.20;9.60;;;;;;;;;;10549701;28;20448;-77
2022/11/22 08:02:25;;;;;;;15.80;9.97;;;;;;;;;;10557922;28;20023;-75
2022/11/22 08:07:26;;;;;;;19.92;11.73;;;;;;;;;;10557558;28;20012;-74
2022/11/22 08:12:27;;;;;;;23.02;9.85;;;;;;;;;;10558085;28;20542;-75
2022/11/22 08:17:27;;;;;;;13.07;8.55;;;;;;;;;;10541394;28;20656;-75
2022/11/22 08:22:28;;;;;;;15.00;8.50;;;;;;;;;;10576159;28;20028;-73
2022/11/22 08:27:28;;;;;;;19.30;8.83;;;;;;;;;;10558895;28;20008;-78
2022/11/22 08:32:28;;;;;;;12.45;8.52;;;;;;;;;;10558817;28;20024;-73
2022/11/22 08:37:28;;;;;;;14.63;7.07;;;;;;;;;;10557822;28;20160;-73
2022/11/22 08:42:29;;;;;;;14.23;7.95;;;;;;;;;;10557758;28;20053;-74
2022/11/22 08:47:29;;;;;;;16.85;7.72;;;;;;;;;;10557505;28;20023;-74
2022/11/22 08:52:29;;;;;;;20.63;8.23;;;;;;;;;;10574858;28;20027;-73
2022/11/22 08:57:31;;;;;;;16.25;8.43;;;;;;;;;;10566688;28;20075;-74
2022/11/22 09:02:31;;;;;;;23.48;10.68;;;;;;;;;;10592376;28;20085;-74
2022/11/22 09:07:31;;;;;;;18.35;9.02;;;;;;;;;;10561326;28;20770;-74
2022/11/22 09:12:32;;;;;;;17.58;9.38;;;;;;;;;;10574137;28;20038;-73
2022/11/22 09:17:32;;;;;;;22.02;11.77;;;;;;;;;;10556500;28;20047;-74
2022/11/22 09:22:34;;;;;;;25.02;11.48;;;;;;;;;;10556119;28;20032;-74
2022/11/22 09:27:34;;;;;;;17.48;9.60;;;;;;;;;;10555402;28;20051;-75
2022/11/22 09:32:35;;;;;;;18.63;9.77;;;;;;;;;;10555549;28;20111;-74
2022/11/22 09:37:35;;;;;;;19.13;10.23;;;;;;;;;;10573754;28;20387;-72
2022/11/22 09:42:53;;;;;;;14.95;8.70;;;;;;;;;;10554949;28;20031;-77
2022/11/22 09:47:53;;;;;;;;;;;;;;;;;;10540615;28;20027;-75
2022/11/22 09:52:54;;;;;;;18.33;9.32;;;;;;;;;;10545588;28;19904;-78
2022/11/22 09:58:07;;;;;;;20.95;10.13;;;;;;;;;;10573109;28;20342;-77
2022/11/22 10:03:23;;;;;;;20.98;8.45;;;;;;;;;;10554988;28;20027;-73
2022/11/22 10:08:26;;;;;;;12.77;7.60;;;;;;;;;;10554561;28;20008;-72
2022/11/22 10:13:36;;;;;;;12.95;7.25;;;;;;;;;;10570350;28;20023;-79
2022/11/22 10:18:39;;;;;;;13.30;7.53;;;;;;;;;;10553640;28;20084;-73
2022/11/22 10:23:40;;;;;;;11.57;6.70;;;;;;;;;;10553706;28;20028;-73
2022/11/22 10:28:43;;;;;;;10.95;7.57;;;;;;;;;;10571823;28;20091;-73
2022/11/22 10:34:02;;;;;;;12.07;6.80;;;;;;;;;;10570989;28;20024;-75
2022/11/22 10:39:14;;;;;;;13.63;7.50;;;;;;;;;;10573292;28;20024;-72
2022/11/22 10:44:50;;;;;;;13.40;8.18;;;;;;;;;;10552630;28;20027;-73
2022/11/22 10:50:02;;;;;;;14.40;8.05;;;;;;;;;;10452286;28;20030;-75
2022/11/22 10:55:17;;;;;;;17.70;8.77;;;;;;;;;;10537010;28;20080;-74
2022/11/22 11:00:18;;;;;;;16.10;8.05;;;;;;;;;;10569713;28;20072;-74
2022/11/22 11:05:21;;;;;;;17.10;9.20;;;;;;;;;;10570064;28;20486;-74
2022/11/22 11:10:25;;;;;;;22.65;7.45;;;;;;;;;;10531913;28;20027;-76
2022/11/22 11:15:26;;;;;;;16.52;8.80;;;;;;;;;;10552193;28;20499;-78
2022/11/22 11:20:30;;;;;;;13.52;7.35;;;;;;;;;;10617170;27;20039;-74
2022/11/22 11:25:39;;;;;;;19.20;9.88;;;;;;;;;;10603690;27;20042;-74
2022/11/22 11:30:43;;;;;;;21.33;9.80;;;;;;;;;;10608415;28;20095;-76
2022/11/22 11:35:43;;;;;;;14.45;7.78;;;;;;;;;;10608564;27;20023;-74
2022/11/22 11:40:44;;;;;;;20.85;9.27;;;;;;;;;;10566793;27;20023;-75
2022/11/22 11:45:44;;;;;;;20.10;10.60;;;;;;;;;;10626363;27;20031;-74
2022/11/22 11:50:44;;;;;;;18.23;8.87;;;;;;;;;;10586499;27;20421;-73
2022/11/22 11:55:44;;;;;;;17.25;8.65;;;;;;;;;;10606537;27;20019;-74
2022/11/22 12:00:45;;;;;;;17.80;8.73;;;;;;;;;;10573454;27;20023;-74
2022/11/22 12:05:45;;;;;;;19.03;9.13;;;;;;;;;;10606615;27;20015;-74
2022/11/22 12:10:55;;;;;;;21.15;10.10;;;;;;;;;;10603433;27;20330;-73
2022/11/22 12:16:14;;;;;;;20.52;9.27;;;;;;;;;;10584332;27;20019;-74
2022/11/22 12:21:32;;;;;;;17.30;8.80;;;;;;;;;;10582815;27;20052;-74
2022/11/22 12:26:33;;;;;;;26.55;11.63;;;;;;;;;;10581574;28;20107;-78
2022/11/22 12:31:38;;;;;;;19.13;10.55;;;;;;;;;;10582231;28;20436;-74
2022/11/22 12:36:47;;;;;;;22.20;9.52;;;;;;;;;;10576455;28;20442;-75
2022/11/22 12:41:49;;;;;;;28.83;11.77;;;;;;;;;;10580905;28;20058;-73
2022/11/22 12:46:51;;;;;;;19.67;10.02;;;;;;;;;;10574743;28;20016;-76
2022/11/22 12:52:07;;;;;;;23.23;10.02;;;;;;;;;;10575495;28;20639;-74
2022/11/22 12:57:18;;;;;;;26.70;10.23;;;;;;;;;;10575270;28;20042;-73
2022/11/22 13:02:18;;;;;;;22.15;10.68;;;;;;;;;;10558746;28;20023;-74
2022/11/22 13:07:30;;;;;;;23.67;11.50;;;;;;;;;;10572151;28;20015;-74
2022/11/22 13:12:33;;;;;;;24.00;12.18;;;;;;;;;;10574074;28;20055;-74
2022/11/22 13:17:34;;;;;;;24.52;11.57;;;;;;;;;;10564202;28;20164;-73
2022/11/22 13:22:45;;;;;;;25.13;13.15;;;;;;;;;;10556667;28;20555;-74
2022/11/22 13:27:47;;;;;;;29.48;13.35;;;;;;;;;;10548429;28;20020;-74
2022/11/22 13:32:52;;;;;;;29.52;14.93;;;;;;;;;;10554931;28;20027;-74
2022/11/22 13:37:54;;;;;;;29.33;14.07;;;;;;;;;;10552935;27;20024;-78
2022/11/22 13:43:22;;;;;;;28.08;13.98;;;;;;;;;;10585887;28;20049;-71
2022/11/22 13:48:39;;;;;;;31.60;13.57;;;;;;;;;;10569362;28;20012;-73
2022/11/22 13:53:48;;;;;;;29.77;13.68;;;;;;;;;;10564441;28;20027;-79
2022/11/22 13:58:50;;;;;;;27.90;14.45;;;;;;;;;;10559527;28;20071;-74
2022/11/22 14:03:51;;;;;;;30.77;15.15;;;;;;;;;;10546955;28;20055;-72
2022/11/22 14:09:11;;;;;;;38.42;16.42;;;;;;;;;;10554918;28;20510;-75
2022/11/22 14:14:15;;;;;;;38.00;16.40;;;;;;;;;;10688222;22;20052;-73
2022/11/22 14:19:22;;;;;;;32.08;16.23;;;;;;;;;;10560058;27;20042;-72
2022/11/22 14:24:25;;;;;;;33.80;15.20;;;;;;;;;;10567345;27;20100;-76
2022/11/22 14:29:44;;;;;;;33.30;14.93;;;;;;;;;;10586327;27;20030;-72
2022/11/22 14:35:04;;;;;;;38.60;17.00;;;;;;;;;;10591986;27;20054;-72
2022/11/22 14:40:06;;;;;;;35.85;15.65;;;;;;;;;;10596401;27;20454;-73
2022/11/22 14:45:09;;;;;;;13.40;8.32;;;;;;;;;;10609564;27;20023;-75
2022/11/22 14:50:14;;;;;;;19.27;9.48;;;;;;;;;;10612275;27;20019;-76
2022/11/22 14:55:20;;;;;;;18.13;10.48;;;;;;;;;;10594054;27;20398;-73
2022/11/22 15:00:22;;;;;;;19.50;9.50;;;;;;;;;;10610549;27;20439;-73
2022/11/22 15:05:34;;;;;;;14.07;7.85;;;;;;;;;;10594162;27;20027;-73
2022/11/22 15:10:34;;;;;;;18.88;8.63;;;;;;;;;;10599550;27;20027;-73
2022/11/22 15:15:35;;;;;;;16.27;7.55;;;;;;;;;;10609491;27;20138;-72
2022/11/22 15:20:36;;;;;;;16.55;7.70;;;;;;;;;;10611937;27;20530;-76
2022/11/22 15:25:36;;;;;;;14.05;7.03;;;;;;;;;;10618714;27;20019;-72
2022/11/22 15:30:38;;;;;;;17.73;6.43;;;;;;;;;;10593964;27;20019;-73
2022/11/22 15:36:02;;;;;;;7.70;4.88;;;;;;;;;;10611775;27;20067;-74
2022/11/22 15:41:03;;;;;;;9.95;5.15;;;;;;;;;;10597162;27;20032;-74
2022/11/22 15:46:03;;;;;;;7.93;4.60;;;;;;;;;;10592897;28;20041;-73
2022/11/22 15:51:04;;;;;;;9.30;5.87;;;;;;;;;;10609464;27;20031;-77
2022/11/22 15:56:23;;;;;;;11.13;6.27;;;;;;;;;;10608852;27;20023;-74
2022/11/22 16:01:24;;;;;;;9.52;4.78;;;;;;;;;;10610443;28;20038;-71
2022/11/22 16:06:26;;;;;;;7.80;5.32;;;;;;;;;;10614777;27;20022;-74
2022/11/22 16:11:31;;;;;;;10.95;4.88;;;;;;;;;;10611666;27;20094;-72
2022/11/22 16:16:32;;;;;;;8.15;4.97;;;;;;;;;;10608554;28;20517;-74
2022/11/22 16:21:32;;;;;;;6.78;4.30;;;;;;;;;;10595414;27;20417;-73
2022/11/22 16:26:32;;;;;;;8.13;4.93;;;;;;;;;;10599751;27;20015;-71
2022/11/22 16:31:33;;;;;;;7.15;4.90;;;;;;;;;;10608903;27;20418;-71
2022/11/22 16:36:34;;;;;;;9.82;5.80;;;;;;;;;;10620376;27;20520;-74
2022/11/22 16:41:34;;;;;;;12.40;6.65;;;;;;;;;;10595220;27;20414;-73
2022/11/22 16:46:35;;;;;;;11.13;5.93;;;;;;;;;;10593410;27;20029;-73
2022/11/22 16:51:35;;;;;;;9.88;5.30;;;;;;;;;;10683229;22;20055;-72
2022/11/22 16:56:36;;;;;;;16.33;6.10;;;;;;;;;;10501687;28;20031;-72
2022/11/22 17:01:36;;;;;;;8.30;5.38;;;;;;;;;;10516332;28;20038;-72
2022/11/22 17:06:39;;;;;;;8.10;5.00;;;;;;;;;;10497441;28;20027;-74
2022/11/22 17:11:41;;;;;;;8.43;5.05;;;;;;;;;;10525640;28;20582;-71
2022/11/22 17:16:42;;;;;;;9.02;5.38;;;;;;;;;;10502435;28;20024;-72
2022/11/22 17:21:43;;;;;;;13.32;5.55;;;;;;;;;;10503553;28;20543;-72
2022/11/22 17:26:43;;;;;;;9.05;4.68;;;;;;;;;;10508149;28;20028;-72
2022/11/22 17:31:45;;;;;;;9.20;4.87;;;;;;;;;;10492612;28;20030;-73
2022/11/22 17:36:45;;;;;;;9.18;4.72;;;;;;;;;;10520627;28;20399;-72
2022/11/22 17:41:49;;;;;;;8.05;4.82;;;;;;;;;;10494812;28;20119;-73
2022/11/22 17:46:49;;;;;;;6.53;4.18;;;;;;;;;;10521035;28;20027;-73
2022/11/22 17:51:52;;;;;;;7.55;3.92;;;;;;;;;;10491941;28;20593;-72
2022/11/22 17:56:52;;;;;;;8.65;4.15;;;;;;;;;;10501313;28;20035;-75
2022/11/22 18:01:53;;;;;;;6.68;4.32;;;;;;;;;;10495064;28;20032;-71
2022/11/22 18:06:53;;;;;;;10.82;5.15;;;;;;;;;;10490385;28;20085;-72
2022/11/22 18:11:54;;;;;;;10.75;4.93;;;;;;;;;;10493706;28;20035;-73
2022/11/22 18:16:54;;;;;;;8.43;4.63;;;;;;;;;;10497447;28;20048;-76
2022/11/22 18:21:54;;;;;;;8.33;4.73;;;;;;;;;;10500783;28;20118;-73
2022/11/22 18:26:55;;;;;;;8.93;4.03;;;;;;;;;;10515995;28;20020;-72
2022/11/22 18:31:55;;;;;;;8.75;5.57;;;;;;;;;;10509764;28;20028;-72
2022/11/22 18:36:55;;;;;;;10.98;5.57;;;;;;;;;;10501583;28;20043;-71
2022/11/22 18:41:56;;;;;;;8.13;4.97;;;;;;;;;;10517208;28;20035;-71
2022/11/22 18:46:56;;;;;;;9.23;5.32;;;;;;;;;;10498343;28;20435;-73
2022/11/22 18:51:56;;;;;;;16.40;5.22;;;;;;;;;;10459890;28;20056;-72
2022/11/22 18:56:56;;;;;;;7.95;4.45;;;;;;;;;;10461851;28;20036;-73
2022/11/22 19:01:57;;;;;;;9.82;5.30;;;;;;;;;;10457198;28;20035;-76
2022/11/22 19:06:58;;;;;;;6.20;3.43;;;;;;;;;;10463921;28;20107;-73
2022/11/22 19:11:58;;;;;;;7.15;4.22;;;;;;;;;;10471262;28;20550;-71
2022/11/22 19:17:00;;;;;;;9.60;5.28;;;;;;;;;;10461118;28;20033;-74
2022/11/22 19:22:01;;;;;;;8.02;4.05;;;;;;;;;;10476071;28;20483;-72
2022/11/22 19:27:01;;;;;;;8.90;4.95;;;;;;;;;;10475141;28;20024;-71
2022/11/22 19:32:02;;;;;;;6.90;4.30;;;;;;;;;;10473884;28;20584;-73
2022/11/22 19:37:05;;;;;;;8.30;4.53;;;;;;;;;;10471859;28;20344;-73
2022/11/22 19:42:05;;;;;;;7.25;4.15;;;;;;;;;;10471595;28;20295;-75
2022/11/22 19:47:07;;;;;;;13.63;4.53;;;;;;;;;;10456798;28;20035;-73
2022/11/22 19:52:08;;;;;;;8.95;4.80;;;;;;;;;;10512346;28;20394;-71
2022/11/22 19:57:08;;;;;;;9.68;4.78;;;;;;;;;;10537662;28;20088;-75
2022/11/22 20:02:08;;;;;;;10.93;4.88;;;;;;;;;;10568290;28;20483;-74
2022/11/22 20:07:08;;;;;;;11.27;5.10;;;;;;;;;;10565041;28;20026;-72
2022/11/22 20:12:09;;;;;;;13.80;5.38;;;;;;;;;;10547353;28;20266;-73
2022/11/22 20:17:09;;;;;;;7.20;4.95;;;;;;;;;;10552006;28;20046;-77
2022/11/22 20:22:09;;;;;;;11.90;6.13;;;;;;;;;;10536534;28;20060;-73
2022/11/22 20:27:10;;;;;;;10.70;6.20;;;;;;;;;;10548745;28;20019;-72
2022/11/22 20:32:10;;;;;;;13.67;7.13;;;;;;;;;;10551010;28;20499;-73
2022/11/22 20:37:11;;;;;;;13.95;7.18;;;;;;;;;;10549813;28;20020;-74
2022/11/22 20:42:11;;;;;;;15.25;7.72;;;;;;;;;;10535489;28;20038;-76
2022/11/22 20:47:11;;;;;;;19.58;8.55;;;;;;;;;;10547455;28;20044;-72
2022/11/22 20:52:11;;;;;;;16.05;7.85;;;;;;;;;;10549822;28;20086;-72
2022/11/22 20:57:12;;;;;;;12.23;6.68;;;;;;;;;;10542202;28;20024;-73
2022/11/22 21:02:12;;;;;;;16.30;7.47;;;;;;;;;;10565815;28;20027;-73
2022/11/22 21:07:12;;;;;;;14.57;8.43;;;;;;;;;;10558117;28;20142;-73
2022/11/22 21:12:12;;;;;;;14.98;7.93;;;;;;;;;;10542388;28;20467;-73
2022/11/22 21:17:13;;;;;;;15.70;7.05;;;;;;;;;;10558530;28;20058;-73
2022/11/22 21:22:13;;;;;;;14.25;7.63;;;;;;;;;;10570081;28;20027;-71
2022/11/22 21:27:13;;;;;;;13.98;8.30;;;;;;;;;;10557468;28;20023;-74
2022/11/22 21:32:15;;;;;;;14.40;7.45;;;;;;;;;;10547052;28;20024;-73
2022/11/22 21:37:16;;;;;;;11.90;7.03;;;;;;;;;;10540824;28;20020;-72
2022/11/22 21:42:16;;;;;;;15.98;8.50;;;;;;;;;;10558374;28;20020;-73
2022/11/22 21:47:16;;;;;;;19.15;8.35;;;;;;;;;;10553584;28;20076;-73
2022/11/22 21:52:16;;;;;;;17.23;8.70;;;;;;;;;;10532082;28;20060;-73
2022/11/22 21:57:17;;;;;;;15.38;8.25;;;;;;;;;;10529439;28;20031;-73
2022/11/22 22:02:18;;;;;;;17.67;9.82;;;;;;;;;;10533614;28;20012;-77
2022/11/22 22:07:18;;;;;;;14.27;9.45;;;;;;;;;;10531558;28;20024;-73
2022/11/22 22:12:18;;;;;;;13.88;7.68;;;;;;;;;;10530754;28;20050;-72
2022/11/22 22:17:19;;;;;;;22.30;9.40;;;;;;;;;;10530497;28;20016;-72
2022/11/22 22:22:19;;;;;;;17.58;8.98;;;;;;;;;;10532718;28;20281;-76
2022/11/22 22:27:19;;;;;;;19.20;8.77;;;;;;;;;;10529915;28;20078;-76
2022/11/22 22:32:19;;;;;;;17.08;9.02;;;;;;;;;;10504930;28;20020;-77
2022/11/22 22:37:20;;;;;;;13.27;7.72;;;;;;;;;;10525574;28;20032;-75
2022/11/22 22:42:20;;;;;;;18.37;9.23;;;;;;;;;;10529787;28;20020;-75
2022/11/22 22:47:20;;;;;;;18.77;10.23;;;;;;;;;;10530391;28;20099;-75
2022/11/22 22:52:20;;;;;;;22.83;10.15;;;;;;;;;;10529460;28;20101;-73
2022/11/22 22:57:21;;;;;;;18.02;9.73;;;;;;;;;;10529571;28;20115;-72
2022/11/22 23:02:21;;;;;;;20.00;9.40;;;;;;;;;;10533084;28;20024;-74
2022/11/22 23:07:21;;;;;;;18.92;9.93;;;;;;;;;;10535562;28;20013;-71
2022/11/22 23:12:21;;;;;;;18.85;9.10;;;;;;;;;;10531945;28;20485;-73
2022/11/22 23:17:22;;;;;;;17.38;10.25;;;;;;;;;;10529161;28;20526;-72
2022/11/22 23:22:22;;;;;;;22.90;10.88;;;;;;;;;;10529276;28;20031;-72
2022/11/22 23:27:22;;;;;;;20.42;11.40;;;;;;;;;;10528847;28;20039;-71
2022/11/22 23:32:23;;;;;;;20.48;10.50;;;;;;;;;;10529824;28;20103;-71
2022/11/22 23:37:23;;;;;;;22.50;11.13;;;;;;;;;;10528279;28;20036;-73
2022/11/22 23:42:23;;;;;;;21.75;10.70;;;;;;;;;;10529783;28;20229;-72
2022/11/22 23:47:23;;;;;;;23.67;11.18;;;;;;;;;;10529404;28;20039;-73
2022/11/22 23:52:24;;;;;;;19.48;10.48;;;;;;;;;;10515486;28;20058;-74
2022/11/22 23:57:24;;;;;;;20.40;10.50;;;;;;;;;;10528297;28;20035;-74
